Time;durP1;ratioP1;P1;durP2;ratioP2;P2;SDS_P1;SDS_P2;PMS_P1;PMS_P2;Temp;Humidity;BMP_temperature;BMP_pressure;BME280_temperature;BME280_humidity;BME280_pressure;Samples;Min_cycle;Max_cycle;Signal;HPM_P1;HPM_P2
2023/08/10 00:01:43;;;;;;;4.07;3.67;;;;;;;15.68;100.00;155390.03;5049609;28;20467;-79
2023/08/10 00:04:10;;;;;;;4.20;3.80;;;;;;;15.64;100.00;155379.66;5033318;28;20446;-80
2023/08/10 00:06:38;;;;;;;3.60;3.30;;;;;;;15.68;100.00;155390.03;5032685;28;20464;-80
2023/08/10 00:09:07;;;;;;;4.47;4.00;;;;;;;15.67;100.00;155387.41;5065766;28;20756;-80
2023/08/10 00:11:34;;;;;;;3.43;3.13;;;;;;;15.76;100.00;155410.84;5016788;28;20451;-80
2023/08/10 00:14:03;;;;;;;4.27;3.87;;;;;;;15.75;100.00;155408.22;5032849;28;20456;-79
2023/08/10 00:16:30;;;;;;;3.93;3.57;;;;;;;15.70;100.00;155395.22;5049659;28;20435;-80
2023/08/10 00:18:57;;;;;;;5.20;4.50;;;;;;;15.69;100.00;155391.34;5049624;28;20436;-79
2023/08/10 00:21:24;;;;;;;3.80;3.40;;;;;;;15.66;100.00;155383.53;5049832;28;20440;-80
2023/08/10 00:23:51;;;;;;;3.97;3.50;;;;;;;15.66;100.00;155383.53;5066492;28;20849;-79
2023/08/10 00:26:20;;;;;;;4.20;3.50;;;;;;;15.63;100.00;155377.03;5033096;28;20498;-79
2023/08/10 00:28:47;;;;;;;3.97;3.67;;;;;;;15.57;100.00;155361.44;5033373;28;20448;-79
2023/08/10 00:31:14;;;;;;;4.00;3.60;;;;;;;15.61;100.00;155371.84;5033344;28;20482;-79
2023/08/10 00:33:41;;;;;;;4.27;3.87;;;;;;;15.56;100.00;155358.84;5032710;28;20813;-80
2023/08/10 00:36:09;;;;;;;4.50;3.67;;;;;;;15.50;100.00;155341.94;5033029;28;20462;-80
2023/08/10 00:38:37;;;;;;;4.23;3.83;;;;;;;15.44;100.00;155326.28;5049832;28;20664;-79
2023/08/10 00:41:05;;;;;;;4.33;3.93;;;;;;;15.40;100.00;155317.22;5032968;28;20628;-79
2023/08/10 00:43:34;;;;;;;4.13;3.73;;;;;;;15.34;100.00;155300.28;5033065;28;20448;-78
2023/08/10 00:46:01;;;;;;;4.37;3.90;;;;;;;15.27;100.00;155283.44;5032969;28;20444;-80
2023/08/10 00:48:28;;;;;;;6.20;4.67;;;;;;;15.22;100.00;155270.44;5049384;28;20468;-79
2023/08/10 00:50:55;;;;;;;4.13;3.73;;;;;;;15.16;100.00;155256.13;5049191;28;20444;-79
2023/08/10 00:53:22;;;;;;;4.83;4.37;;;;;;;15.16;100.00;155256.13;5049426;28;20464;-79
2023/08/10 00:55:53;;;;;;;4.00;3.60;;;;;;;15.10;100.00;155240.53;5049301;28;20450;-79
2023/08/10 00:58:21;;;;;;;4.97;4.47;;;;;;;15.09;100.00;155236.66;5049037;28;20690;-79
2023/08/10 01:00:49;;;;;;;4.70;4.30;;;;;;;15.05;100.00;155227.53;5032574;28;20451;-79
2023/08/10 01:03:17;;;;;;;4.60;4.17;;;;;;;14.97;100.00;155205.44;5032632;28;20491;-79
2023/08/10 01:05:51;;;;;;;5.20;4.80;;;;;;;14.92;100.00;155192.47;5049175;28;20451;-80
2023/08/10 01:08:24;;;;;;;5.07;4.57;;;;;;;14.85;100.00;155174.28;5032608;28;20523;-80
2023/08/10 01:10:59;;;;;;;5.33;4.83;;;;;;;14.80;100.00;155161.31;5048811;28;20436;-79
2023/08/10 01:13:31;;;;;;;8.80;4.53;;;;;;;14.76;100.00;155150.88;5049118;28;20463;-79
2023/08/10 01:16:04;;;;;;;4.93;4.47;;;;;;;14.78;100.00;155156.06;5049126;28;20460;-79
2023/08/10 01:18:31;;;;;;;5.10;4.60;;;;;;;14.75;100.00;155148.25;5048844;28;20433;-79
2023/08/10 01:21:07;;;;;;;5.67;5.17;;;;;;;14.74;100.00;155145.69;5047088;28;20458;-80
2023/08/10 01:23:39;;;;;;;4.80;4.27;;;;;;;14.70;100.00;155135.28;5031274;28;20431;-80
2023/08/10 01:26:08;;;;;;;4.57;4.17;;;;;;;14.62;100.00;155115.81;5047327;28;20472;-80
2023/08/10 01:28:36;;;;;;;4.70;4.30;;;;;;;14.54;100.00;155096.31;5047254;28;20446;-80
2023/08/10 01:31:03;;;;;;;4.73;4.30;;;;;;;14.50;100.00;155085.97;5047350;28;20531;-80
2023/08/10 01:33:30;;;;;;;4.30;3.87;;;;;;;14.46;100.00;155074.25;5047148;28;20480;-80
2023/08/10 01:35:57;;;;;;;4.93;4.13;;;;;;;14.44;100.00;155069.06;5064112;28;20632;-79
2023/08/10 01:38:25;;;;;;;4.60;4.20;;;;;;;14.41;100.00;155062.56;5030636;28;20431;-79
2023/08/10 01:40:52;;;;;;;4.87;4.37;;;;;;;14.37;100.00;155052.19;5013738;28;20536;-79
2023/08/10 01:43:21;;;;;;;4.60;4.17;;;;;;;14.37;100.00;155052.19;5031474;28;20498;-79
2023/08/10 01:45:50;;;;;;;4.73;4.33;;;;;;;14.33;100.00;155040.47;5048338;28;20467;-80
2023/08/10 01:48:21;;;;;;;4.60;4.20;;;;;;;14.36;100.00;155049.59;5030771;28;20475;-79
2023/08/10 01:50:50;;;;;;;6.03;4.60;;;;;;;14.34;100.00;155043.09;5047292;28;20448;-78
2023/08/10 01:53:20;;;;;;;4.77;4.37;;;;;;;14.30;100.00;155032.63;5030840;28;20499;-79
2023/08/10 01:55:48;;;;;;;4.80;4.30;;;;;;;14.29;100.00;155031.38;5031009;28;20459;-79
2023/08/10 01:58:15;;;;;;;5.00;4.50;;;;;;;14.25;100.00;155020.94;5047257;28;20534;-79
2023/08/10 02:00:44;;;;;;;4.90;4.40;;;;;;;14.29;100.00;155031.38;5046649;28;20440;-79
2023/08/10 02:03:11;;;;;;;5.07;4.57;;;;;;;14.24;100.00;155018.38;5046933;28;20464;-79
2023/08/10 02:05:38;;;;;;;4.20;3.80;;;;;;;14.20;100.00;155007.97;5030866;28;20471;-79
2023/08/10 02:08:07;;;;;;;4.90;4.50;;;;;;;14.20;100.00;155007.97;5064035;28;20443;-80
2023/08/10 02:10:34;;;;;;;5.20;4.70;;;;;;;14.24;100.00;155018.38;5030645;28;20447;-79
2023/08/10 02:13:02;;;;;;;5.20;4.70;;;;;;;14.24;100.00;155018.38;5063891;28;20472;-80
2023/08/10 02:15:29;;;;;;;4.50;4.10;;;;;;;14.20;100.00;155007.97;5030433;28;20468;-79
2023/08/10 02:17:59;;;;;;;5.07;4.57;;;;;;;14.20;100.00;155006.66;5047551;28;20510;-79
2023/08/10 02:20:26;;;;;;;4.40;4.00;;;;;;;14.18;100.00;155002.78;5030451;28;20523;-80
2023/08/10 02:22:54;;;;;;;4.60;4.20;;;;;;;14.15;100.00;154993.69;5064346;28;20745;-80
2023/08/10 02:25:22;;;;;;;4.57;4.10;;;;;;;14.13;100.00;154988.50;5047000;28;20460;-80
2023/08/10 02:27:50;;;;;;;4.80;4.30;;;;;;;14.12;100.00;154985.88;5014392;28;20437;-79
2023/08/10 02:30:18;;;;;;;5.27;4.77;;;;;;;14.12;100.00;154987.19;5063956;28;20440;-79
2023/08/10 02:32:45;;;;;;;5.07;4.57;;;;;;;14.09;100.00;154979.41;5045917;28;20547;-80
2023/08/10 02:35:14;;;;;;;6.10;5.50;;;;;;;14.13;100.00;154988.50;5030357;28;20483;-80
2023/08/10 02:37:42;;;;;;;5.20;4.57;;;;;;;14.13;100.00;154989.81;5047030;28;20448;-80
2023/08/10 02:40:12;;;;;;;4.60;4.20;;;;;;;14.08;100.00;154976.84;5030286;28;20495;-79
2023/08/10 02:42:40;;;;;;;4.37;3.97;;;;;;;14.09;100.00;154979.41;5029975;28;20527;-79
2023/08/10 02:45:08;;;;;;;4.63;4.23;;;;;;;14.07;100.00;154972.91;5046802;28;20427;-79
2023/08/10 02:47:36;;;;;;;4.63;4.23;;;;;;;14.02;100.00;154961.25;5063530;28;20432;-80
2023/08/10 02:50:05;;;;;;;6.90;4.80;;;;;;;13.99;100.00;154953.44;5030515;28;20508;-79
2023/08/10 02:52:34;;;;;;;4.60;4.20;;;;;;;13.95;100.00;154943.09;5030597;28;20531;-79
2023/08/10 02:55:03;;;;;;;5.17;4.70;;;;;;;13.94;100.00;154940.47;5030726;28;20433;-79
2023/08/10 02:57:30;;;;;;;5.03;4.53;;;;;;;13.95;100.00;154944.34;5047147;28;20479;-79
2023/08/10 02:59:57;;;;;;;5.30;4.50;;;;;;;13.93;100.00;154939.16;5046630;28;20519;-81
2023/08/10 03:02:24;;;;;;;5.10;4.70;;;;;;;13.90;100.00;154931.38;5030295;28;20455;-78
2023/08/10 03:04:52;;;;;;;5.03;3.93;;;;;;;13.84;100.00;154914.50;5030481;28;20459;-80
2023/08/10 03:07:20;;;;;;;4.80;4.00;;;;;;;13.81;100.00;154906.72;5031259;28;20892;-80
2023/08/10 03:09:50;;;;;;;4.57;4.13;;;;;;;13.80;100.00;154904.09;5047027;28;20456;-80
2023/08/10 03:12:21;;;;;;;5.00;4.50;;;;;;;13.85;100.00;154917.06;5030023;28;20456;-78
2023/08/10 03:14:51;;;;;;;7.37;4.30;;;;;;;13.86;100.00;154921.00;5047637;28;20783;-80
2023/08/10 03:17:18;;;;;;;4.87;4.30;;;;;;;13.80;100.00;154905.41;5047494;28;20692;-79
2023/08/10 03:19:45;;;;;;;4.80;4.10;;;;;;;13.77;100.00;154896.31;5031362;28;20435;-79
2023/08/10 03:22:13;;;;;;;4.63;4.20;;;;;;;13.74;100.00;154888.56;5031560;28;20435;-79
2023/08/10 03:24:41;;;;;;;4.93;4.43;;;;;;;13.74;100.00;154888.56;5046249;28;20443;-81
2023/08/10 03:27:09;;;;;;;4.90;4.50;;;;;;;13.73;100.00;154885.94;5029363;28;20449;-79
2023/08/10 03:29:36;;;;;;;4.93;4.53;;;;;;;13.68;100.00;154874.28;5063005;28;20468;-80
2023/08/10 03:32:04;;;;;;;4.53;4.13;;;;;;;13.72;100.00;154884.63;5063094;28;20512;-80
2023/08/10 03:34:31;;;;;;;6.40;5.20;;;;;;;13.71;100.00;154882.06;5045608;28;20494;-80
2023/08/10 03:36:58;;;;;;;5.40;4.90;;;;;;;13.73;100.00;154885.94;5029644;28;20456;-80
2023/08/10 03:39:28;;;;;;;5.27;4.50;;;;;;;13.70;100.00;154878.16;5046228;28;20455;-80
2023/08/10 03:41:58;;;;;;;5.53;4.97;;;;;;;13.68;100.00;154874.28;5046895;28;20752;-78
2023/08/10 03:44:27;;;;;;;5.57;4.60;;;;;;;13.67;100.00;154871.66;5046237;28;20527;-79
2023/08/10 03:46:54;;;;;;;5.33;4.83;;;;;;;13.69;100.00;154876.84;5029867;28;20475;-79
2023/08/10 03:49:24;;;;;;;5.33;4.83;;;;;;;13.70;100.00;154878.16;5046461;28;20510;-80
2023/08/10 03:51:52;;;;;;;5.63;5.10;;;;;;;13.72;100.00;154883.34;5046388;28;20499;-80
2023/08/10 03:54:19;;;;;;;5.93;5.40;;;;;;;13.71;100.00;154882.06;5046089;28;20816;-81
2023/08/10 03:56:46;;;;;;;4.97;4.53;;;;;;;13.70;100.00;154878.16;5046389;28;20458;-80
2023/08/10 03:59:13;;;;;;;5.83;5.33;;;;;;;13.71;100.00;154882.06;5029391;28;20443;-80
2023/08/10 04:01:43;;;;;;;4.83;4.40;;;;;;;13.74;100.00;154888.56;5029657;28;20444;-80
2023/08/10 04:04:10;;;;;;;5.40;4.90;;;;;;;13.76;100.00;154895.06;5046458;28;20452;-80
2023/08/10 04:06:39;;;;;;;5.50;5.00;;;;;;;13.78;100.00;154898.91;5033808;28;20436;-80
2023/08/10 04:09:07;;;;;;;5.23;4.73;;;;;;;13.79;100.00;154902.78;5067161;28;20466;-80
2023/08/10 04:11:37;;;;;;;5.50;5.00;;;;;;;13.79;100.00;154901.53;5066379;28;20443;-79
2023/08/10 04:14:04;;;;;;;5.20;4.40;;;;;;;13.83;100.00;154911.91;5050082;28;20495;-80
2023/08/10 04:16:35;;;;;;;5.40;4.90;;;;;;;13.83;100.00;154911.91;5049623;28;20527;-80
2023/08/10 04:19:04;;;;;;;4.80;4.40;;;;;;;13.84;100.00;154915.81;5049266;28;20790;-81
2023/08/10 04:21:35;;;;;;;5.67;5.10;;;;;;;13.80;100.00;154904.09;5032831;28;20472;-81
2023/08/10 04:24:02;;;;;;;4.93;4.43;;;;;;;13.81;100.00;154906.72;5049101;28;20428;-80
2023/08/10 04:26:30;;;;;;;6.73;4.23;;;;;;;13.82;100.00;154910.59;5049296;28;20436;-80
2023/08/10 04:28:57;;;;;;;5.23;4.73;;;;;;;13.81;100.00;154908.03;5033263;28;20444;-81
2023/08/10 04:31:24;;;;;;;4.90;4.50;;;;;;;13.80;100.00;154904.09;5033325;28;20449;-81
2023/08/10 04:33:51;;;;;;;5.23;4.67;;;;;;;13.81;100.00;154908.03;5033063;28;20472;-81
2023/08/10 04:36:21;;;;;;;4.90;4.50;;;;;;;13.81;100.00;154906.72;5049309;28;20462;-81
2023/08/10 04:38:51;;;;;;;5.63;5.13;;;;;;;13.82;100.00;154909.34;5049080;28;20451;-80
2023/08/10 04:41:29;;;;;;;5.30;4.50;;;;;;;13.80;100.00;154905.41;5065730;28;20470;-80
2023/08/10 04:43:59;;;;;;;5.33;4.50;;;;;;;13.77;100.00;154896.31;5033086;28;20463;-80
2023/08/10 04:46:26;;;;;;;5.40;4.90;;;;;;;13.75;100.00;154891.13;5049606;28;20463;-81
2023/08/10 04:48:56;;;;;;;5.27;4.63;;;;;;;13.72;100.00;154883.34;5032807;28;20436;-80
2023/08/10 04:51:26;;;;;;;7.23;5.67;;;;;;;13.77;100.00;154896.31;5032769;28;20440;-81
2023/08/10 04:53:53;;;;;;;6.00;5.40;;;;;;;13.78;100.00;154900.22;5065726;28;20533;-81
2023/08/10 04:56:26;;;;;;;5.43;4.60;;;;;;;13.74;100.00;154888.56;5049373;28;20494;-80
2023/08/10 04:58:57;;;;;;;6.60;5.10;;;;;;;13.75;100.00;154892.44;5049765;28;20768;-80
2023/08/10 05:01:27;;;;;;;6.10;5.50;;;;;;;13.78;100.00;154898.91;5065604;28;20451;-80
2023/08/10 05:03:54;;;;;;;6.20;5.60;;;;;;;13.85;100.00;154917.06;5032847;28;20628;-80
2023/08/10 05:06:21;;;;;;;5.63;5.10;;;;;;;13.88;100.00;154924.88;5048912;28;20435;-80
2023/08/10 05:08:50;;;;;;;7.70;6.90;;;;;;;13.88;100.00;154924.88;5048788;28;20447;-80
2023/08/10 05:11:20;;;;;;;7.67;6.97;;;;;;;13.97;100.00;154948.25;5049223;28;20515;-80
2023/08/10 05:13:48;;;;;;;7.27;6.57;;;;;;;14.14;100.00;154992.38;5032221;28;20567;-82
2023/08/10 05:16:15;;;;;;;8.30;7.40;;;;;;;14.36;100.00;155049.59;5032017;28;20446;-82
2023/08/10 05:18:42;;;;;;;9.00;7.73;;;;;;;14.61;100.00;155114.50;5032937;28;20696;-81
2023/08/10 05:21:10;;;;;;;8.83;7.93;;;;;;;14.85;100.00;155174.28;5048850;28;20447;-82
2023/08/10 05:23:37;;;;;;;7.93;7.13;;;;;;;15.06;100.00;155228.84;5065829;28;20451;-82
2023/08/10 05:26:07;;;;;;;7.27;6.57;;;;;;;15.31;100.00;155292.50;5048598;28;20451;-82
2023/08/10 05:28:34;;;;;;;9.00;6.10;;;;;;;15.54;100.00;155353.63;5065402;28;20832;-81
2023/08/10 05:31:01;;;;;;;6.63;6.03;;;;;;;15.73;100.00;155401.72;5031905;28;20464;-82
2023/08/10 05:33:29;;;;;;;5.80;5.30;;;;;;;15.87;100.00;155436.81;5048348;28;20464;-82
2023/08/10 05:35:57;;;;;;;6.17;5.57;;;;;;;16.05;100.00;155483.63;5048462;28;20436;-81
2023/08/10 05:38:26;;;;;;;5.90;5.40;;;;;;;16.22;100.00;155529.16;5065424;28;20448;-81
2023/08/10 05:40:55;;;;;;;6.30;5.23;;;;;;;16.36;100.00;155564.28;5047708;28;20527;-80
2023/08/10 05:43:24;;;;;;;5.33;4.90;;;;;;;16.54;100.00;155611.16;5047329;28;20448;-81
2023/08/10 05:45:51;;;;;;;5.53;5.03;;;;;;;16.68;100.00;155647.53;5065288;28;20535;-82
2023/08/10 05:48:19;;;;;;;5.83;4.97;;;;;;;16.81;100.00;155681.38;5064710;28;20839;-81
2023/08/10 05:50:46;;;;;;;5.03;4.60;;;;;;;16.93;100.00;155711.31;5031644;28;20425;-82
2023/08/10 05:53:14;;;;;;;4.67;4.27;;;;;;;17.11;100.00;155756.84;5031428;28;20440;-81
2023/08/10 05:55:42;;;;;;;4.87;4.47;;;;;;;17.21;100.00;155782.91;5015200;28;20702;-81
2023/08/10 05:58:09;;;;;;;5.17;4.67;;;;;;;17.32;100.00;155812.81;5030937;28;20502;-82
2023/08/10 06:00:39;;;;;;;4.80;4.40;;;;;;;17.57;100.00;155876.66;5048173;28;20450;-80
2023/08/10 06:03:09;;;;;;;7.17;4.70;;;;;;;17.56;98.77;155874.03;5034139;28;20447;-81
2023/08/10 06:05:40;;;;;;;4.87;4.47;;;;;;;17.53;99.95;155867.53;5050203;28;20491;-81
2023/08/10 06:08:08;;;;;;;5.37;4.60;;;;;;;17.45;100.00;155845.34;5050008;28;20677;-81
2023/08/10 06:10:36;;;;;;;5.40;4.90;;;;;;;17.29;100.00;155805.00;5050601;28;20466;-81
2023/08/10 06:13:07;;;;;;;6.53;5.97;;;;;;;17.12;100.00;155760.78;5050490;28;20432;-81
2023/08/10 06:15:35;;;;;;;5.30;4.90;;;;;;;17.00;100.00;155729.50;5034049;28;20467;-80
2023/08/10 06:18:04;;;;;;;4.93;4.50;;;;;;;16.89;100.00;155700.94;5033149;28;20504;-80
2023/08/10 06:20:33;;;;;;;4.83;4.43;;;;;;;16.78;100.00;155673.59;5064532;28;20506;-82
2023/08/10 06:23:00;;;;;;;4.80;4.40;;;;;;;16.65;100.00;155639.78;5044687;28;20456;-82
2023/08/10 06:25:27;;;;;;;5.63;4.90;;;;;;;16.56;100.00;155616.34;5044843;28;20448;-83
2023/08/10 06:27:54;;;;;;;5.50;5.00;;;;;;;16.54;100.00;155609.84;5028826;28;20606;-82
2023/08/10 06:30:22;;;;;;;6.97;4.83;;;;;;;16.48;100.00;155594.16;5033065;28;20924;-80
2023/08/10 06:32:57;;;;;;;5.33;4.40;;;;;;;16.47;100.00;155592.88;5001386;28;20476;-80
2023/08/10 06:35:27;;;;;;;5.60;5.10;;;;;;;16.37;100.00;155566.84;5049805;28;20506;-80
2023/08/10 06:37:57;;;;;;;6.13;5.53;;;;;;;16.25;100.00;155536.97;5033764;28;20440;-80
2023/08/10 06:40:25;;;;;;;5.47;4.97;;;;;;;16.23;100.00;155531.75;5049973;28;20522;-80
2023/08/10 06:42:57;;;;;;;5.93;4.67;;;;;;;16.21;100.00;155525.25;5050477;28;20436;-80
2023/08/10 06:45:35;;;;;;;5.23;4.70;;;;;;;16.22;100.00;155527.84;5049602;28;20438;-80
2023/08/10 06:48:02;;;;;;;7.87;5.53;;;;;;;16.22;100.00;155527.84;5066523;28;20452;-80
2023/08/10 06:50:32;;;;;;;5.83;5.10;;;;;;;16.20;100.00;155522.66;5016610;28;20444;-80
2023/08/10 06:53:02;;;;;;;6.27;5.60;;;;;;;16.14;100.00;155508.38;5049827;28;20524;-80
2023/08/10 06:55:30;;;;;;;6.10;5.50;;;;;;;16.17;100.00;155514.88;5049590;28;20488;-80
2023/08/10 06:57:59;;;;;;;5.93;4.83;;;;;;;16.17;100.00;155514.88;5066305;28;20523;-80
2023/08/10 07:00:28;;;;;;;5.83;5.30;;;;;;;16.30;100.00;155548.66;5048681;28;20439;-79
2023/08/10 07:02:58;;;;;;;6.03;5.53;;;;;;;16.32;100.00;155553.84;5033289;28;20452;-79
2023/08/10 07:05:27;;;;;;;6.10;5.60;;;;;;;16.30;100.00;155549.97;5049385;28;20467;-79
2023/08/10 07:07:57;;;;;;;7.30;6.30;;;;;;;16.29;100.00;155546.06;5050196;28;20444;-79
2023/08/10 07:10:25;;;;;;;6.50;5.90;;;;;;;16.28;100.00;155543.47;5049723;28;20509;-79
2023/08/10 07:12:52;;;;;;;6.90;6.20;;;;;;;16.20;100.00;155523.94;5033229;28;20803;-79
2023/08/10 07:15:21;;;;;;;6.13;5.53;;;;;;;16.25;100.00;155536.97;5050039;28;20614;-79
2023/08/10 07:17:49;;;;;;;6.23;5.63;;;;;;;16.35;100.00;155561.66;5033363;28;20534;-79
2023/08/10 07:20:18;;;;;;;6.73;5.90;;;;;;;16.36;100.00;155565.56;5049204;28;20451;-79
2023/08/10 07:22:47;;;;;;;6.03;5.43;;;;;;;16.44;100.00;155586.38;5066715;28;20456;-79
2023/08/10 07:25:19;;;;;;;7.93;6.87;;;;;;;16.49;100.00;155598.09;5033360;28;20445;-79
2023/08/10 07:27:48;;;;;;;7.00;6.13;;;;;;;16.46;100.00;155590.28;5050451;28;20744;-79
2023/08/10 07:30:19;;;;;;;7.43;6.73;;;;;;;16.53;100.00;155607.22;5050197;28;20460;-79
2023/08/10 07:32:48;;;;;;;7.60;5.60;;;;;;;16.55;100.00;155613.72;5049451;28;20502;-79
2023/08/10 07:35:16;;;;;;;6.20;5.60;;;;;;;16.61;100.00;155629.34;5049303;28;20502;-79
2023/08/10 07:37:43;;;;;;;7.13;6.43;;;;;;;16.62;100.00;155631.97;5049534;28;20452;-79
2023/08/10 07:40:14;;;;;;;6.63;5.70;;;;;;;16.72;100.00;155656.66;5035439;28;20452;-79
2023/08/10 07:42:43;;;;;;;6.53;5.93;;;;;;;16.76;100.00;155668.38;5053415;28;20436;-79
2023/08/10 07:45:12;;;;;;;6.87;6.27;;;;;;;16.83;100.00;155686.59;5020866;28;20444;-79
2023/08/10 07:47:41;;;;;;;6.73;5.80;;;;;;;16.85;100.00;155691.81;5037481;28;20458;-79
2023/08/10 07:50:10;;;;;;;6.43;5.83;;;;;;;16.91;100.00;155706.13;5053344;28;20462;-80
2023/08/10 07:52:38;;;;;;;6.30;5.70;;;;;;;17.02;100.00;155734.75;5053457;28;20458;-79
2023/08/10 07:55:07;;;;;;;7.03;6.00;;;;;;;17.03;100.00;155738.63;5053251;28;20475;-79
2023/08/10 07:57:34;;;;;;;5.97;5.40;;;;;;;17.14;100.00;155764.66;5053093;28;20448;-79
2023/08/10 08:00:06;;;;;;;6.47;5.87;;;;;;;17.28;100.00;155801.09;5052629;28;20467;-80
2023/08/10 08:02:42;;;;;;;5.57;5.07;;;;;;;17.39;100.00;155829.75;5052835;28;20513;-80
2023/08/10 08:05:10;;;;;;;6.70;6.10;;;;;;;17.48;100.00;155853.16;5036124;28;20463;-80
2023/08/10 08:07:40;;;;;;;5.67;5.07;;;;;;;17.47;100.00;155851.84;5036311;28;20903;-80
2023/08/10 08:10:08;;;;;;;5.97;5.37;;;;;;;17.54;100.00;155868.84;5036700;28;20494;-80
2023/08/10 08:12:41;;;;;;;6.83;6.23;;;;;;;17.67;100.00;155901.38;5021113;28;20431;-80
2023/08/10 08:15:11;;;;;;;6.23;5.67;;;;;;;17.70;100.00;155910.50;5036308;28;20474;-80
2023/08/10 08:18:29;;;;;;;6.73;6.13;;;;;;;17.74;100.00;155920.88;5069140;28;20519;-80
2023/08/10 08:20:57;;;;;;;8.87;8.07;;;;;;;17.79;100.00;155933.91;4976140;28;20455;-80
2023/08/10 08:23:27;;;;;;;6.27;5.67;;;;;;;17.78;100.00;155931.31;5019190;28;20448;-81
2023/08/10 08:25:54;;;;;;;7.17;6.50;;;;;;;17.88;100.00;155956.03;5051312;28;20512;-80
2023/08/10 08:28:21;;;;;;;6.30;5.70;;;;;;;18.03;100.00;155996.41;5052604;28;20424;-80
2023/08/10 08:30:50;;;;;;;6.73;6.13;;;;;;;18.18;100.00;156035.50;5051704;28;20452;-82
2023/08/10 08:33:19;;;;;;;6.50;5.87;;;;;;;18.41;100.00;156092.78;5034129;28;20476;-82
2023/08/10 08:35:47;;;;;;;6.87;6.17;;;;;;;18.51;100.00;156118.88;5034141;28;20547;-81
2023/08/10 08:38:15;;;;;;;8.33;6.27;;;;;;;18.62;100.00;156147.53;5034756;28;20624;-81
2023/08/10 08:40:43;;;;;;;7.00;6.40;;;;;;;18.80;100.00;156194.44;5034270;28;20687;-81
2023/08/10 08:43:11;;;;;;;7.20;6.40;;;;;;;18.97;99.71;156237.44;5033877;28;20531;-82
2023/08/10 08:45:40;;;;;;;6.87;5.90;;;;;;;19.12;100.00;156277.84;5049883;28;20440;-82
2023/08/10 08:48:09;;;;;;;7.03;6.33;;;;;;;19.27;96.10;156316.91;5050350;28;20466;-82
2023/08/10 08:50:38;;;;;;;6.27;5.67;;;;;;;19.41;96.47;156352.16;5067975;28;20506;-82
2023/08/10 08:53:10;;;;;;;6.93;6.00;;;;;;;19.70;95.89;156427.78;5051557;28;20456;-82
2023/08/10 08:55:39;;;;;;;6.67;6.07;;;;;;;19.83;92.26;156460.41;5050586;28;20484;-82
2023/08/10 08:58:07;;;;;;;7.40;6.70;;;;;;;19.80;93.05;156452.59;5050899;28;20447;-82
2023/08/10 09:00:34;;;;;;;6.83;6.23;;;;;;;19.83;94.12;156460.41;5033132;28;20606;-82
2023/08/10 09:03:05;;;;;;;7.47;6.77;;;;;;;19.97;94.03;156496.88;5032990;28;20669;-82
2023/08/10 09:05:34;;;;;;;6.63;6.03;;;;;;;20.19;93.46;156552.97;5050142;28;20540;-83
2023/08/10 09:08:01;;;;;;;7.10;5.37;;;;;;;20.42;93.42;156614.31;5049387;28;20455;-81
2023/08/10 09:10:29;;;;;;;10.00;6.30;;;;;;;20.65;94.13;156673.03;5048825;28;20488;-81
2023/08/10 09:12:56;;;;;;;6.30;5.73;;;;;;;20.65;93.35;156674.31;5049039;28;20444;-83
2023/08/10 09:15:27;;;;;;;7.03;6.40;;;;;;;20.70;89.63;156684.78;5031656;28;20471;-83
2023/08/10 09:17:56;;;;;;;5.93;5.43;;;;;;;20.81;91.68;156713.47;5048595;28;20452;-82
2023/08/10 09:20:29;;;;;;;5.00;4.60;;;;;;;20.88;89.36;156731.75;5048327;28;20629;-82
2023/08/10 09:22:59;;;;;;;5.83;4.80;;;;;;;20.89;88.23;156734.38;5031912;28;20512;-82
2023/08/10 09:25:27;;;;;;;5.80;5.20;;;;;;;21.04;86.85;156773.50;5031713;28;20474;-82
2023/08/10 09:27:54;;;;;;;6.53;6.03;;;;;;;21.18;84.22;156810.09;5031866;28;20456;-82
2023/08/10 09:30:22;;;;;;;5.93;5.43;;;;;;;21.20;85.93;156815.31;5048118;28;20500;-82
2023/08/10 09:32:49;;;;;;;5.60;5.10;;;;;;;21.26;86.27;156829.66;5048250;28;20476;-82
2023/08/10 09:35:22;;;;;;;5.93;4.70;;;;;;;21.29;83.05;156837.50;5047732;28;20464;-84
2023/08/10 09:37:49;;;;;;;5.33;4.83;;;;;;;21.39;84.32;156864.91;5031948;28;20507;-82
2023/08/10 09:40:21;;;;;;;6.53;5.90;;;;;;;21.40;81.60;156867.50;5047307;28;20437;-82
2023/08/10 09:42:49;;;;;;;6.23;5.00;;;;;;;21.18;80.41;156811.38;5014826;28;20460;-83
2023/08/10 09:45:22;;;;;;;5.73;5.20;;;;;;;21.12;83.23;156795.75;5047139;28;20445;-83
2023/08/10 09:47:53;;;;;;;5.17;4.67;;;;;;;21.26;82.96;156829.66;5030705;28;20444;-83
2023/08/10 09:50:22;;;;;;;6.40;5.80;;;;;;;21.37;82.02;156859.66;5030570;28;20436;-83
2023/08/10 09:52:52;;;;;;;6.33;5.00;;;;;;;21.36;82.40;156857.09;5031410;28;20443;-82
2023/08/10 09:55:30;;;;;;;6.13;5.10;;;;;;;21.32;86.28;156846.63;5047442;28;20468;-82
2023/08/10 10:00:39;;;;;;;5.20;4.70;;;;;;;21.67;82.29;156936.69;5022476;28;20463;-83
2023/08/10 10:03:06;;;;;;;7.70;4.70;;;;;;;21.88;81.96;156990.25;5047815;28;20443;-83
2023/08/10 10:05:34;;;;;;;5.77;4.67;;;;;;;21.83;79.51;156979.78;5031141;28;20812;-83
2023/08/10 10:08:05;;;;;;;4.20;3.80;;;;;;;21.67;79.51;156938.00;5031603;28;20455;-82
2023/08/10 10:10:37;;;;;;;5.27;4.77;;;;;;;21.79;80.04;156969.31;5048063;28;20440;-82
2023/08/10 10:13:06;;;;;;;6.33;5.00;;;;;;;21.90;79.62;156995.47;5065035;28;20456;-81
2023/08/10 10:15:36;;;;;;;4.90;4.50;;;;;;;22.04;80.18;157032.03;5047629;28;20475;-82
2023/08/10 10:18:05;;;;;;;4.60;4.20;;;;;;;22.13;76.41;157056.88;5064678;28;20594;-82
2023/08/10 10:20:32;;;;;;;5.07;4.67;;;;;;;22.14;76.01;157058.16;5031247;28;20494;-82
2023/08/10 10:23:00;;;;;;;4.40;4.00;;;;;;;21.99;76.35;157019.00;5064634;28;20444;-82
2023/08/10 10:25:27;;;;;;;5.57;4.97;;;;;;;21.88;76.33;156990.25;5031649;28;20446;-82
2023/08/10 10:27:58;;;;;;;4.50;4.07;;;;;;;21.97;76.76;157013.78;5032321;28;20459;-82
2023/08/10 10:30:25;;;;;;;4.87;4.47;;;;;;;22.04;75.23;157033.38;5048022;28;20665;-82
2023/08/10 10:32:53;;;;;;;3.93;3.63;;;;;;;21.97;75.76;157015.09;5011758;28;20658;-82
2023/08/10 10:35:33;;;;;;;4.70;4.13;;;;;;;22.00;73.88;157022.88;5020133;28;20464;-82
2023/08/10 10:38:06;;;;;;;4.60;3.70;;;;;;;21.99;76.03;157019.00;5012315;28;20471;-82
2023/08/10 10:40:34;;;;;;;3.67;3.37;;;;;;;21.93;72.70;157003.31;5031411;28;20467;-82
2023/08/10 10:43:14;;;;;;;3.53;3.23;;;;;;;21.90;73.20;156996.78;5015078;28;20970;-81
2023/08/10 10:45:42;;;;;;;3.93;3.53;;;;;;;21.92;73.17;157002.03;5048391;28;20463;-81
2023/08/10 10:48:11;;;;;;;4.00;3.60;;;;;;;22.10;71.69;157049.06;5031432;28;20451;-81
2023/08/10 10:50:38;;;;;;;3.67;3.37;;;;;;;22.08;71.37;157042.53;5030991;28;20507;-81
2023/08/10 10:53:09;;;;;;;3.90;3.50;;;;;;;21.92;71.57;157000.72;5015450;28;20448;-82
2023/08/10 10:55:42;;;;;;;8.17;4.43;;;;;;;21.75;72.22;156957.59;5048026;28;20858;-82
2023/08/10 10:58:14;;;;;;;3.73;3.43;;;;;;;21.63;71.61;156926.28;5048354;28;20444;-82
2023/08/10 11:00:43;;;;;;;4.00;3.70;;;;;;;21.64;72.37;156930.16;5031290;28;20438;-82
2023/08/10 11:03:13;;;;;;;5.03;3.63;;;;;;;21.63;73.00;156927.53;5031670;28;20424;-81
2023/08/10 11:05:41;;;;;;;4.00;3.70;;;;;;;21.68;72.77;156940.59;5031973;28;20452;-82
2023/08/10 11:08:12;;;;;;;4.73;4.27;;;;;;;21.82;71.67;156975.84;5015406;28;20479;-82
2023/08/10 11:10:43;;;;;;;4.40;4.00;;;;;;;21.91;70.46;156998.09;5031742;28;20462;-81
2023/08/10 11:13:14;;;;;;;4.80;4.27;;;;;;;21.84;70.26;156982.38;5015353;28;20451;-82
2023/08/10 11:15:43;;;;;;;4.37;3.93;;;;;;;21.79;70.84;156968.00;5017711;28;20500;-82
2023/08/10 11:18:17;;;;;;;5.70;4.30;;;;;;;21.72;70.70;156951.06;5018943;28;20496;-82
2023/08/10 11:20:45;;;;;;;4.33;3.70;;;;;;;21.67;70.67;156938.00;5035704;28;20435;-82
2023/08/10 11:23:15;;;;;;;5.63;4.47;;;;;;;21.70;69.26;156945.84;5035225;28;20444;-81
2023/08/10 11:25:49;;;;;;;6.50;3.90;;;;;;;21.63;68.59;156927.53;5051985;28;20456;-81
2023/08/10 11:28:19;;;;;;;4.03;3.63;;;;;;;21.65;68.79;156931.47;5034918;28;20455;-81
2023/08/10 11:30:56;;;;;;;6.70;3.97;;;;;;;21.87;68.07;156987.69;5018559;28;20541;-81